createdAt,value
2017-05-08T00:00:24.838Z,1011.45
2017-05-08T00:01:05.431Z,1011.43
2017-05-08T00:01:46.040Z,1011.42
2017-05-08T00:02:27.721Z,1011.41
2017-05-08T00:03:08.288Z,1011.42
2017-05-08T00:03:48.929Z,1011.4
2017-05-08T00:04:29.577Z,1011.41
2017-05-08T00:05:10.149Z,1011.42
2017-05-08T00:05:50.790Z,1011.41
2017-05-08T00:06:31.432Z,1011.45
2017-05-08T00:07:12.010Z,1011.47
2017-05-08T00:07:52.636Z,1011.48
2017-05-08T00:08:33.300Z,1011.46
2017-05-08T00:09:14.057Z,1011.52
2017-05-08T00:09:54.707Z,1011.51
2017-05-08T00:10:35.354Z,1011.48
2017-05-08T00:11:16.012Z,1011.47
2017-05-08T00:11:56.663Z,1011.45
2017-05-08T00:12:37.311Z,1011.49
2017-05-08T00:13:17.891Z,1011.5
2017-05-08T00:13:58.564Z,1011.47
2017-05-08T00:14:39.271Z,1011.46
2017-05-08T00:15:19.925Z,1011.48
2017-05-08T00:16:00.491Z,1011.47
2017-05-08T00:16:41.176Z,1011.45
2017-05-08T00:17:21.868Z,1011.45
2017-05-08T00:18:02.566Z,1011.48
2017-05-08T00:18:43.200Z,1011.49
2017-05-08T00:19:23.859Z,1011.5
2017-05-08T00:20:09.835Z,1011.46
2017-05-08T00:20:50.535Z,1011.52
2017-05-08T00:21:31.285Z,1011.47
2017-05-08T00:22:12.044Z,1011.45
2017-05-08T00:22:52.801Z,1011.51
2017-05-08T00:23:33.555Z,1011.47
2017-05-08T00:24:14.208Z,1011.48
2017-05-08T00:24:54.964Z,1011.46
2017-05-08T00:25:35.717Z,1011.48
2017-05-08T00:26:16.492Z,1011.45
2017-05-08T00:26:57.228Z,1011.51
2017-05-08T00:27:37.980Z,1011.46
2017-05-08T00:28:18.737Z,1011.46
2017-05-08T00:28:59.495Z,1011.47
2017-05-08T00:29:40.247Z,1011.45
2017-05-08T00:30:21.033Z,1011.47
2017-05-08T00:31:01.756Z,1011.48
2017-05-08T00:31:42.513Z,1011.51
2017-05-08T00:32:23.274Z,1011.45
2017-05-08T00:33:04.023Z,1011.48
2017-05-08T00:33:44.779Z,1011.53
2017-05-08T00:34:25.534Z,1011.53
2017-05-08T00:35:06.298Z,1011.56
2017-05-08T00:35:47.043Z,1011.53
2017-05-08T00:36:34.458Z,1011.52
2017-05-08T00:37:15.024Z,1011.56
2017-05-08T00:37:55.715Z,1011.59
2017-05-08T00:38:36.410Z,1011.55
2017-05-08T00:39:17.171Z,1011.52
2017-05-08T00:39:57.746Z,1011.57
2017-05-08T00:40:38.437Z,1011.53
2017-05-08T00:41:19.125Z,1011.56
2017-05-08T00:41:59.881Z,1011.55
2017-05-08T00:42:40.464Z,1011.53
2017-05-08T00:43:22.212Z,1011.56
2017-05-08T00:44:02.966Z,1011.53
2017-05-08T00:44:43.544Z,1011.55
2017-05-08T00:45:24.276Z,1011.53
2017-05-08T00:46:05.026Z,1011.52
2017-05-08T00:46:45.610Z,1011.53
2017-05-08T00:47:26.245Z,1011.51
2017-05-08T00:48:06.983Z,1011.55
2017-05-08T00:48:47.752Z,1011.52
2017-05-08T00:49:28.502Z,1011.55
2017-05-08T00:50:09.271Z,1011.52
2017-05-08T00:50:50.007Z,1011.54
2017-05-08T00:51:30.781Z,1011.55
2017-05-08T00:52:11.531Z,1011.52
2017-05-08T00:52:52.274Z,1011.55
2017-05-08T00:53:33.043Z,1011.54
2017-05-08T00:54:13.797Z,1011.55
2017-05-08T00:54:54.538Z,1011.5
2017-05-08T00:55:35.310Z,1011.54
2017-05-08T00:56:16.045Z,1011.5
2017-05-08T00:56:56.820Z,1011.51
2017-05-08T00:57:37.565Z,1011.54
2017-05-08T00:58:18.138Z,1011.54
2017-05-08T00:58:58.833Z,1011.55
2017-05-08T00:59:39.532Z,1011.52
2017-05-08T01:00:20.284Z,1011.52
2017-05-08T01:01:00.853Z,1011.56
2017-05-08T01:01:42.561Z,1011.52
2017-05-08T01:02:24.291Z,1011.51
2017-05-08T01:03:06.070Z,1011.53
2017-05-08T01:03:46.631Z,1011.52
2017-05-08T01:04:28.443Z,1011.56
2017-05-08T01:05:11.202Z,1011.5
2017-05-08T01:05:54.005Z,1011.49
2017-05-08T01:06:34.610Z,1011.52
2017-05-08T01:07:19.880Z,1011.57
2017-05-08T01:08:00.621Z,1011.55
2017-05-08T01:08:41.408Z,1011.51
2017-05-08T01:09:22.141Z,1011.53
2017-05-08T01:10:02.899Z,1011.52
2017-05-08T01:10:43.635Z,1011.49
2017-05-08T01:11:25.423Z,1011.5
2017-05-08T01:12:06.086Z,1011.47
2017-05-08T01:12:46.838Z,1011.45
2017-05-08T01:13:27.495Z,1011.46
2017-05-08T01:14:08.146Z,1011.48
2017-05-08T01:14:48.789Z,1011.46
2017-05-08T01:15:29.460Z,1011.47
2017-05-08T01:16:10.092Z,1011.48
2017-05-08T01:16:50.759Z,1011.42
2017-05-08T01:17:31.411Z,1011.49
2017-05-08T01:18:12.006Z,1011.46
2017-05-08T01:18:52.584Z,1011.45
2017-05-08T01:19:33.201Z,1011.46
2017-05-08T01:20:13.864Z,1011.48
2017-05-08T01:20:54.423Z,1011.46
2017-05-08T01:21:35.093Z,1011.45
2017-05-08T01:22:15.719Z,1011.43
2017-05-08T01:22:56.291Z,1011.42
2017-05-08T01:23:36.919Z,1011.45
2017-05-08T01:24:17.573Z,1011.43
2017-05-08T01:24:58.156Z,1011.45
2017-05-08T01:25:38.780Z,1011.43
2017-05-08T01:26:19.433Z,1011.44
2017-05-08T01:26:59.986Z,1011.46
2017-05-08T01:27:40.632Z,1011.42
2017-05-08T01:28:21.289Z,1011.46
2017-05-08T01:29:01.857Z,1011.44
2017-05-08T01:29:42.549Z,1011.45
2017-05-08T01:30:23.144Z,1011.45
2017-05-08T01:31:03.801Z,1011.47
2017-05-08T01:31:44.369Z,1011.48
2017-05-08T01:32:25.049Z,1011.45
2017-05-08T01:33:05.663Z,1011.43
2017-05-08T01:33:46.309Z,1011.46
2017-05-08T01:34:26.876Z,1011.43
2017-05-08T01:35:07.564Z,1011.41
2017-05-08T01:35:48.179Z,1011.42
2017-05-08T01:36:28.818Z,1011.41
2017-05-08T01:37:09.401Z,1011.41
2017-05-08T01:37:50.070Z,1011.4
2017-05-08T01:38:30.685Z,1011.39
2017-05-08T01:39:11.329Z,1011.41
2017-05-08T01:39:51.900Z,1011.37
2017-05-08T01:40:32.582Z,1011.42
2017-05-08T01:41:13.187Z,1011.39
2017-05-08T01:41:53.846Z,1011.39
2017-05-08T01:42:34.425Z,1011.38
2017-05-08T01:43:15.104Z,1011.39
2017-05-08T01:43:55.802Z,1011.36
2017-05-08T01:44:36.458Z,1011.34
2017-05-08T01:45:17.040Z,1011.35
2017-05-08T01:45:57.687Z,1011.35
2017-05-08T01:46:38.314Z,1011.35
2017-05-08T01:47:18.960Z,1011.33
2017-05-08T01:47:59.517Z,1011.34
2017-05-08T01:48:40.196Z,1011.32
2017-05-08T01:49:20.813Z,1011.32
2017-05-08T01:50:01.385Z,1011.3
2017-05-08T01:50:42.028Z,1011.28
2017-05-08T01:51:22.674Z,1011.35
2017-05-08T01:52:03.239Z,1011.31
2017-05-08T01:52:43.884Z,1011.29
2017-05-08T01:53:24.534Z,1011.3
2017-05-08T01:54:05.188Z,1011.31
2017-05-08T01:54:45.844Z,1011.3
2017-05-08T01:55:26.492Z,1011.32
2017-05-08T01:56:07.146Z,1011.3
2017-05-08T01:56:47.798Z,1011.34
2017-05-08T01:57:28.452Z,1011.29
2017-05-08T01:58:09.208Z,1011.37
2017-05-08T01:58:49.858Z,1011.38
2017-05-08T01:59:30.513Z,1011.32
2017-05-08T02:00:11.162Z,1011.28
2017-05-08T02:00:51.829Z,1011.33
2017-05-08T02:01:32.474Z,1011.31
2017-05-08T02:02:13.135Z,1011.34
2017-05-08T02:02:53.786Z,1011.34
2017-05-08T02:03:34.438Z,1011.31
2017-05-08T02:04:15.091Z,1011.32
2017-05-08T02:04:55.746Z,1011.36
2017-05-08T02:05:36.400Z,1011.41
2017-05-08T02:06:17.057Z,1011.37
2017-05-08T02:06:57.707Z,1011.41
2017-05-08T02:07:38.358Z,1011.34
2017-05-08T02:08:20.032Z,1011.36
2017-05-08T02:09:00.682Z,1011.35
2017-05-08T02:09:41.335Z,1011.36
2017-05-08T02:10:21.994Z,1011.39
2017-05-08T02:11:02.647Z,1011.36
2017-05-08T02:11:43.297Z,1011.39
2017-05-08T02:12:23.951Z,1011.36
2017-05-08T02:13:04.596Z,1011.39
2017-05-08T02:13:45.264Z,1011.37
2017-05-08T02:14:25.900Z,1011.39
2017-05-08T02:15:06.559Z,1011.4
2017-05-08T02:15:47.210Z,1011.38
2017-05-08T02:16:46.524Z,1011.42
2017-05-08T02:17:27.215Z,1011.41
2017-05-08T02:18:07.904Z,1011.38
2017-05-08T02:18:48.559Z,1011.39
2017-05-08T02:19:29.134Z,1011.39
2017-05-08T02:20:09.827Z,1011.36
2017-05-08T02:20:50.529Z,1011.4
2017-05-08T02:21:31.170Z,1011.37
2017-05-08T02:22:11.754Z,1011.35
2017-05-08T02:22:52.437Z,1011.37
2017-05-08T02:23:33.076Z,1011.37
2017-05-08T02:24:13.741Z,1011.38
2017-05-08T02:24:54.389Z,1011.42
2017-05-08T02:25:35.049Z,1011.39
2017-05-08T02:26:15.694Z,1011.4
2017-05-08T02:26:56.346Z,1011.4
2017-05-08T02:27:37.004Z,1011.4
2017-05-08T02:28:17.600Z,1011.41
2017-05-08T02:28:58.177Z,1011.47
2017-05-08T02:29:38.807Z,1011.43
2017-05-08T02:30:21.503Z,1011.46
2017-05-08T02:31:02.072Z,1011.42
2017-05-08T02:31:42.712Z,1011.42
2017-05-08T02:32:23.357Z,1011.44
2017-05-08T02:33:03.945Z,1011.4
2017-05-08T02:33:44.611Z,1011.46
2017-05-08T02:34:26.021Z,1011.41
2017-05-08T02:35:06.686Z,1011.4
2017-05-08T02:35:47.255Z,1011.38
2017-05-08T02:36:27.940Z,1011.36
2017-05-08T02:37:08.643Z,1011.41
2017-05-08T02:37:49.302Z,1011.43
2017-05-08T02:38:29.950Z,1011.38
2017-05-08T02:39:10.606Z,1011.39
2017-05-08T02:39:51.259Z,1011.37
2017-05-08T02:40:31.904Z,1011.36
2017-05-08T02:41:12.569Z,1011.41
2017-05-08T02:41:53.213Z,1011.36
2017-05-08T02:42:33.782Z,1011.39
2017-05-08T02:43:14.493Z,1011.37
2017-05-08T02:43:55.182Z,1011.43
2017-05-08T02:44:35.925Z,1011.41
2017-05-08T02:45:16.493Z,1011.42
2017-05-08T02:45:57.185Z,1011.39
2017-05-08T02:46:37.884Z,1011.39
2017-05-08T02:47:18.542Z,1011.43
2017-05-08T02:47:59.190Z,1011.43
2017-05-08T02:48:39.846Z,1011.41
2017-05-08T02:49:20.499Z,1011.39
2017-05-08T02:50:01.154Z,1011.41
2017-05-08T02:50:41.807Z,1011.4
2017-05-08T02:51:22.462Z,1011.41
2017-05-08T02:52:03.212Z,1011.44
2017-05-08T02:52:43.817Z,1011.4
2017-05-08T02:53:24.515Z,1011.43
2017-05-08T02:54:05.170Z,1011.41
2017-05-08T02:54:45.826Z,1011.39
2017-05-08T02:55:26.383Z,1011.38
2017-05-08T02:56:07.101Z,1011.37
2017-05-08T02:56:47.786Z,1011.41
2017-05-08T02:57:28.442Z,1011.44
2017-05-08T02:58:09.009Z,1011.39
2017-05-08T02:58:49.694Z,1011.44
2017-05-08T02:59:30.398Z,1011.44
2017-05-08T03:00:11.055Z,1011.44
2017-05-08T03:00:51.617Z,1011.46
2017-05-08T03:01:32.329Z,1011.41
2017-05-08T03:02:13.009Z,1011.42
2017-05-08T03:02:53.662Z,1011.39
2017-05-08T03:03:34.316Z,1011.44
2017-05-08T03:04:14.965Z,1011.41
2017-05-08T03:04:55.621Z,1011.4
2017-05-08T03:05:36.289Z,1011.41
2017-05-08T03:06:16.928Z,1011.4
2017-05-08T03:06:58.609Z,1011.43
2017-05-08T03:07:39.176Z,1011.42
2017-05-08T03:08:19.866Z,1011.41
2017-05-08T03:09:00.561Z,1011.39
2017-05-08T03:09:41.217Z,1011.39
2017-05-08T03:10:21.796Z,1011.41
2017-05-08T03:11:02.474Z,1011.39
2017-05-08T03:11:44.127Z,1011.39
2017-05-08T03:12:24.749Z,1011.42
2017-05-08T03:13:06.178Z,1011.38
2017-05-08T03:13:46.877Z,1011.37
2017-05-08T03:14:27.531Z,1011.34
2017-05-08T03:15:09.205Z,1011.37
2017-05-08T03:15:49.963Z,1011.35
2017-05-08T03:16:30.614Z,1011.35
2017-05-08T03:17:11.369Z,1011.38
2017-05-08T03:17:51.928Z,1011.34
2017-05-08T03:18:32.732Z,1011.37
2017-05-08T03:19:13.429Z,1011.36
2017-05-08T03:19:55.116Z,1011.37
2017-05-08T03:20:35.665Z,1011.38
2017-05-08T03:21:16.361Z,1011.38
2017-05-08T03:21:57.078Z,1011.35
2017-05-08T03:22:37.727Z,1011.38
2017-05-08T03:23:18.380Z,1011.35
2017-05-08T03:24:00.056Z,1011.38
2017-05-08T03:24:40.708Z,1011.37
2017-05-08T03:25:22.390Z,1011.4
2017-05-08T03:26:03.041Z,1011.39
2017-05-08T03:26:43.690Z,1011.36
2017-05-08T03:27:25.370Z,1011.37
2017-05-08T03:28:06.022Z,1011.37
2017-05-08T03:28:48.724Z,1011.39
2017-05-08T03:29:31.231Z,1011.41
2017-05-08T03:30:11.792Z,1011.39
2017-05-08T03:30:52.436Z,1011.36
2017-05-08T03:31:33.095Z,1011.35
2017-05-08T03:32:13.744Z,1011.39
2017-05-08T03:32:54.501Z,1011.39
2017-05-08T03:33:35.152Z,1011.36
2017-05-08T03:34:15.740Z,1011.39
2017-05-08T03:34:56.386Z,1011.38
2017-05-08T03:35:37.114Z,1011.35
2017-05-08T03:36:17.767Z,1011.34
2017-05-08T03:36:58.419Z,1011.33
2017-05-08T03:37:39.075Z,1011.36
2017-05-08T03:38:19.719Z,1011.34
2017-05-08T03:39:00.381Z,1011.34
2017-05-08T03:39:41.131Z,1011.35
2017-05-08T03:40:21.785Z,1011.3
2017-05-08T03:41:02.437Z,1011.32
2017-05-08T03:41:43.088Z,1011.36
2017-05-08T03:42:23.744Z,1011.32
2017-05-08T03:43:04.309Z,1011.33
2017-05-08T03:43:45.044Z,1011.32
2017-05-08T03:44:25.696Z,1011.36
2017-05-08T03:45:06.279Z,1011.36
2017-05-08T03:45:47.004Z,1011.42
2017-05-08T03:46:27.665Z,1011.41
2017-05-08T03:47:08.238Z,1011.41
2017-05-08T03:47:48.951Z,1011.41
2017-05-08T03:48:29.724Z,1011.41
2017-05-08T03:49:10.281Z,1011.42
2017-05-08T03:49:50.921Z,1011.38
2017-05-08T03:50:31.578Z,1011.4
2017-05-08T03:51:12.156Z,1011.39
2017-05-08T03:51:52.881Z,1011.41
2017-05-08T03:52:33.638Z,1011.39
2017-05-08T03:53:14.407Z,1011.36
2017-05-08T03:53:55.047Z,1011.4
2017-05-08T03:54:35.704Z,1011.38
2017-05-08T03:55:16.356Z,1011.37
2017-05-08T03:55:57.011Z,1011.42
2017-05-08T03:56:37.662Z,1011.42
2017-05-08T03:57:18.310Z,1011.42
2017-05-08T03:57:58.907Z,1011.43
2017-05-08T03:58:39.590Z,1011.4
2017-05-08T03:59:20.267Z,1011.42
2017-05-08T04:00:00.933Z,1011.42
2017-05-08T04:00:41.479Z,1011.42
2017-05-08T04:01:22.197Z,1011.44
2017-05-08T04:02:03.909Z,1011.44
2017-05-08T04:02:44.562Z,1011.47
2017-05-08T04:03:25.156Z,1011.45
2017-05-08T04:04:05.910Z,1011.41
2017-05-08T04:04:46.786Z,1011.47
2017-05-08T04:05:27.485Z,1011.45
2017-05-08T04:06:08.032Z,1011.44
2017-05-08T04:06:48.740Z,1011.44
2017-05-08T04:07:29.445Z,1011.49
2017-05-08T04:08:10.196Z,1011.46
2017-05-08T04:08:50.740Z,1011.44
2017-05-08T04:09:31.396Z,1011.48
2017-05-08T04:10:12.050Z,1011.49
2017-05-08T04:10:52.618Z,1011.46
2017-05-08T04:11:33.367Z,1011.48
2017-05-08T04:12:14.113Z,1011.48
2017-05-08T04:12:54.770Z,1011.45
2017-05-08T04:13:36.442Z,1011.48
2017-05-08T04:14:17.199Z,1011.48
2017-05-08T04:14:57.952Z,1011.5
2017-05-08T04:15:38.614Z,1011.49
2017-05-08T04:16:19.363Z,1011.48
2017-05-08T04:17:00.122Z,1011.47
2017-05-08T04:17:40.726Z,1011.48
2017-05-08T04:18:21.381Z,1011.45
2017-05-08T04:19:02.088Z,1011.44
2017-05-08T04:19:42.839Z,1011.46
2017-05-08T04:20:26.380Z,1011.48
2017-05-08T04:21:06.999Z,1011.48
2017-05-08T04:21:47.698Z,1011.48
2017-05-08T04:22:28.348Z,1011.44
2017-05-08T04:23:09.001Z,1011.46
2017-05-08T04:23:49.647Z,1011.46
2017-05-08T04:24:30.308Z,1011.45
2017-05-08T04:25:10.948Z,1011.43
2017-05-08T04:25:51.613Z,1011.45
2017-05-08T04:26:32.261Z,1011.45
2017-05-08T04:27:12.924Z,1011.42
2017-05-08T04:27:53.471Z,1011.39
2017-05-08T04:28:34.070Z,1011.42
2017-05-08T04:29:14.688Z,1011.45
2017-05-08T04:29:55.327Z,1011.39
2017-05-08T04:30:35.911Z,1011.44
2017-05-08T04:31:16.587Z,1011.41
2017-05-08T04:31:57.186Z,1011.43
2017-05-08T04:32:37.834Z,1011.41
2017-05-08T04:33:18.482Z,1011.46
2017-05-08T04:33:59.140Z,1011.45
2017-05-08T04:34:39.795Z,1011.46
2017-05-08T04:35:20.460Z,1011.45
2017-05-08T04:36:01.101Z,1011.43
2017-05-08T04:36:41.753Z,1011.47
2017-05-08T04:37:22.405Z,1011.43
2017-05-08T04:38:03.057Z,1011.48
2017-05-08T04:38:43.704Z,1011.45
2017-05-08T04:39:24.363Z,1011.45
2017-05-08T04:40:05.015Z,1011.5
2017-05-08T04:40:45.670Z,1011.48
2017-05-08T04:41:26.330Z,1011.51
2017-05-08T04:42:06.973Z,1011.5
2017-05-08T04:42:47.623Z,1011.52
2017-05-08T04:43:28.281Z,1011.49
2017-05-08T04:44:08.936Z,1011.52
2017-05-08T04:44:49.702Z,1011.54
2017-05-08T04:45:30.342Z,1011.56
2017-05-08T04:46:10.993Z,1011.54
2017-05-08T04:46:51.647Z,1011.55
2017-05-08T04:47:32.233Z,1011.6
2017-05-08T04:48:12.908Z,1011.54
2017-05-08T04:48:53.611Z,1011.55
2017-05-08T04:49:34.266Z,1011.58
2017-05-08T04:50:14.832Z,1011.55
2017-05-08T04:50:55.517Z,1011.57
2017-05-08T04:51:36.108Z,1011.57
2017-05-08T04:52:16.777Z,1011.58
2017-05-08T04:52:57.366Z,1011.57
2017-05-08T04:53:38.037Z,1011.58
2017-05-08T04:54:18.719Z,1011.55
2017-05-08T04:54:59.384Z,1011.59
2017-05-08T04:55:39.955Z,1011.59
2017-05-08T04:56:20.682Z,1011.6
2017-05-08T04:57:01.344Z,1011.57
2017-05-08T04:57:41.998Z,1011.59
2017-05-08T04:58:22.574Z,1011.59
2017-05-08T04:59:03.200Z,1011.57
2017-05-08T04:59:43.856Z,1011.59
2017-05-08T05:00:24.418Z,1011.61
2017-05-08T05:01:05.054Z,1011.61
2017-05-08T05:01:45.710Z,1011.59
2017-05-08T05:02:26.282Z,1011.61
2017-05-08T05:03:06.915Z,1011.65
2017-05-08T05:03:47.540Z,1011.65
2017-05-08T05:04:28.215Z,1011.64
2017-05-08T05:05:08.868Z,1011.66
2017-05-08T05:05:49.525Z,1011.68
2017-05-08T05:06:30.176Z,1011.72
2017-05-08T05:07:10.826Z,1011.7
2017-05-08T05:07:51.396Z,1011.72
2017-05-08T05:08:32.083Z,1011.69
2017-05-08T05:09:12.786Z,1011.69
2017-05-08T05:09:53.438Z,1011.72
2017-05-08T05:10:34.001Z,1011.72
2017-05-08T05:11:14.595Z,1011.7
2017-05-08T05:11:55.288Z,1011.74
2017-05-08T05:12:35.984Z,1011.74
2017-05-08T05:13:16.677Z,1011.73
2017-05-08T05:13:57.431Z,1011.73
2017-05-08T05:14:38.205Z,1011.75
2017-05-08T05:15:18.957Z,1011.72
2017-05-08T05:15:59.716Z,1011.78
2017-05-08T05:16:40.462Z,1011.75
2017-05-08T05:17:21.232Z,1011.75
2017-05-08T05:18:01.782Z,1011.72
2017-05-08T05:18:42.530Z,1011.75
2017-05-08T05:19:23.087Z,1011.77
2017-05-08T05:20:03.794Z,1011.77
2017-05-08T05:20:44.497Z,1011.77
2017-05-08T05:21:25.244Z,1011.81
2017-05-08T05:22:05.801Z,1011.8
2017-05-08T05:22:46.509Z,1011.74
2017-05-08T05:23:27.185Z,1011.8
2017-05-08T05:24:07.949Z,1011.79
2017-05-08T05:24:48.711Z,1011.79
2017-05-08T05:25:29.361Z,1011.81
2017-05-08T05:26:10.017Z,1011.83
2017-05-08T05:26:50.664Z,1011.79
2017-05-08T05:27:31.318Z,1011.81
2017-05-08T05:28:11.897Z,1011.8
2017-05-08T05:28:52.585Z,1011.85
2017-05-08T05:29:33.183Z,1011.84
2017-05-08T05:30:13.834Z,1011.82
2017-05-08T05:30:54.385Z,1011.88
2017-05-08T05:31:35.155Z,1011.86
2017-05-08T05:32:15.789Z,1011.89
2017-05-08T05:32:56.452Z,1011.87
2017-05-08T05:33:37.033Z,1011.87
2017-05-08T05:34:17.643Z,1011.9
2017-05-08T05:34:58.305Z,1011.82
2017-05-08T05:35:38.886Z,1011.87
2017-05-08T05:36:19.500Z,1011.92
2017-05-08T05:37:00.378Z,1011.87
2017-05-08T05:37:40.937Z,1011.92
2017-05-08T05:38:21.634Z,1011.91
2017-05-08T05:39:02.271Z,1011.87
2017-05-08T05:39:42.924Z,1011.91
2017-05-08T05:40:23.579Z,1011.89
2017-05-08T05:41:04.239Z,1011.89
2017-05-08T05:41:44.882Z,1011.91
2017-05-08T05:42:25.537Z,1011.86
2017-05-08T05:43:06.187Z,1011.86
2017-05-08T05:43:46.784Z,1011.86
2017-05-08T05:44:27.460Z,1011.85
2017-05-08T05:45:08.045Z,1011.91
2017-05-08T05:45:48.712Z,1011.89
2017-05-08T05:46:29.289Z,1011.85
2017-05-08T05:47:09.961Z,1011.89
2017-05-08T05:47:50.601Z,1011.93
2017-05-08T05:48:31.157Z,1011.86
2017-05-08T05:49:11.759Z,1011.9
2017-05-08T05:49:52.453Z,1011.93
2017-05-08T05:50:33.130Z,1011.94
2017-05-08T05:51:13.690Z,1011.95
2017-05-08T05:51:54.379Z,1011.94
2017-05-08T05:52:35.079Z,1011.94
2017-05-08T05:53:15.731Z,1011.94
2017-05-08T05:53:56.303Z,1011.91
2017-05-08T05:54:36.983Z,1011.85
2017-05-08T05:55:17.575Z,1011.93
2017-05-08T05:55:58.240Z,1011.98
2017-05-08T05:56:38.813Z,1011.91
2017-05-08T05:57:19.495Z,1011.91
2017-05-08T05:58:00.185Z,1011.91
2017-05-08T05:58:40.850Z,1011.91
2017-05-08T05:59:21.418Z,1011.93
2017-05-08T06:00:02.105Z,1011.89
2017-05-08T06:00:42.807Z,1011.89
2017-05-08T06:01:23.463Z,1011.92
2017-05-08T06:02:04.039Z,1011.92
2017-05-08T06:02:44.715Z,1011.93
2017-05-08T06:03:26.348Z,1011.93
2017-05-08T06:04:07.027Z,1011.92
2017-05-08T06:04:47.643Z,1011.95
2017-05-08T06:05:28.287Z,1011.97
2017-05-08T06:06:08.953Z,1011.98
2017-05-08T06:06:49.606Z,1011.96
2017-05-08T06:07:30.262Z,1011.96
2017-05-08T06:08:10.920Z,1011.91
2017-05-08T06:08:51.560Z,1011.94
2017-05-08T06:09:32.216Z,1011.95
2017-05-08T06:10:12.864Z,1011.95
2017-05-08T06:10:53.503Z,1011.99
2017-05-08T06:11:34.174Z,1011.99
2017-05-08T06:12:14.838Z,1011.95
2017-05-08T06:12:55.476Z,1011.96
2017-05-08T06:13:36.151Z,1011.94
2017-05-08T06:14:16.786Z,1011.99
2017-05-08T06:14:57.454Z,1012.03
2017-05-08T06:15:38.098Z,1011.98
2017-05-08T06:16:18.741Z,1011.99
2017-05-08T06:16:59.377Z,1011.98
2017-05-08T06:17:40.058Z,1011.98
2017-05-08T06:18:20.734Z,1012.02
2017-05-08T06:19:01.386Z,1012.01
2017-05-08T06:19:42.012Z,1012.01
2017-05-08T06:20:22.669Z,1011.99
2017-05-08T06:21:03.234Z,1012.02
2017-05-08T06:21:43.867Z,1012.05
2017-05-08T06:22:24.525Z,1012
2017-05-08T06:23:05.215Z,1012.03
2017-05-08T06:23:45.829Z,1012.06
2017-05-08T06:24:26.482Z,1012.08
2017-05-08T06:25:07.052Z,1012.09
2017-05-08T06:25:47.663Z,1012.05
2017-05-08T06:26:28.330Z,1012.05
2017-05-08T06:27:09.092Z,1012.06
2017-05-08T06:27:49.663Z,1012.03
2017-05-08T06:28:30.371Z,1012.05
2017-05-08T06:29:11.004Z,1012.04
2017-05-08T06:29:51.668Z,1012.03
2017-05-08T06:30:32.312Z,1012.08
2017-05-08T06:31:13.067Z,1012.09
2017-05-08T06:31:53.714Z,1012.07
2017-05-08T06:32:34.392Z,1012.06
2017-05-08T06:33:15.023Z,1012.06
2017-05-08T06:33:55.701Z,1012.02
2017-05-08T06:34:36.352Z,1012.05
2017-05-08T06:35:16.999Z,1012.04
2017-05-08T06:35:57.634Z,1012.07
2017-05-08T06:36:38.320Z,1012.06
2017-05-08T06:37:18.955Z,1012.06
2017-05-08T06:37:59.593Z,1012.09
2017-05-08T06:38:40.250Z,1012.07
2017-05-08T06:39:20.896Z,1012.1
2017-05-08T06:40:01.557Z,1012.09
2017-05-08T06:40:42.204Z,1012.06
2017-05-08T06:41:22.860Z,1012.04
2017-05-08T06:42:03.524Z,1012.07
2017-05-08T06:42:44.283Z,1012.12
2017-05-08T06:43:24.932Z,1012.12
2017-05-08T06:44:05.585Z,1012.12
2017-05-08T06:44:46.226Z,1012.1
2017-05-08T06:45:26.897Z,1012.11
2017-05-08T06:46:07.558Z,1012.14
2017-05-08T06:46:48.244Z,1012.13
2017-05-08T06:47:28.954Z,1012.16
2017-05-08T06:48:09.590Z,1012.15
2017-05-08T06:48:50.228Z,1012.15
2017-05-08T06:49:30.953Z,1012.14
2017-05-08T06:50:11.522Z,1012.2
2017-05-08T06:50:52.214Z,1012.17
2017-05-08T06:51:32.904Z,1012.19
2017-05-08T06:52:13.565Z,1012.19
2017-05-08T06:52:54.139Z,1012.18
2017-05-08T06:53:34.816Z,1012.21
2017-05-08T06:54:15.476Z,1012.23
2017-05-08T06:54:56.150Z,1012.24
2017-05-08T06:55:36.795Z,1012.26
2017-05-08T06:56:17.444Z,1012.25
2017-05-08T06:56:58.108Z,1012.22
2017-05-08T06:57:38.743Z,1012.23
2017-05-08T06:58:19.398Z,1012.26
2017-05-08T06:59:00.108Z,1012.26
2017-05-08T06:59:40.748Z,1012.23
2017-05-08T07:00:21.402Z,1012.24
2017-05-08T07:01:02.055Z,1012.22
2017-05-08T07:01:42.709Z,1012.24
2017-05-08T07:02:23.371Z,1012.23
2017-05-08T07:03:04.027Z,1012.21
2017-05-08T07:03:44.672Z,1012.23
2017-05-08T07:04:27.374Z,1012.2
2017-05-08T07:05:08.019Z,1012.22
2017-05-08T07:05:48.677Z,1012.29
2017-05-08T07:06:29.329Z,1012.25
2017-05-08T07:07:11.013Z,1012.26
2017-05-08T07:07:51.775Z,1012.27
2017-05-08T07:08:32.514Z,1012.27
2017-05-08T07:09:13.167Z,1012.23
2017-05-08T07:09:54.854Z,1012.24
2017-05-08T07:10:35.508Z,1012.27
2017-05-08T07:11:16.148Z,1012.25
2017-05-08T07:11:56.805Z,1012.29
2017-05-08T07:12:37.463Z,1012.32
2017-05-08T07:13:18.033Z,1012.34
2017-05-08T07:13:59.671Z,1012.34
2017-05-08T07:14:41.373Z,1012.36
2017-05-08T07:15:21.940Z,1012.39
2017-05-08T07:16:02.548Z,1012.39
2017-05-08T07:16:43.230Z,1012.39
2017-05-08T07:17:23.778Z,1012.37
2017-05-08T07:18:04.433Z,1012.38
2017-05-08T07:18:45.100Z,1012.39
2017-05-08T07:19:25.734Z,1012.38
2017-05-08T07:20:06.379Z,1012.38
2017-05-08T07:20:47.031Z,1012.38
2017-05-08T07:21:27.687Z,1012.38
2017-05-08T07:22:08.308Z,1012.33
2017-05-08T07:22:49.001Z,1012.31
2017-05-08T07:23:29.640Z,1012.32
2017-05-08T07:24:10.300Z,1012.3
2017-05-08T07:24:50.954Z,1012.36
2017-05-08T07:25:31.604Z,1012.34
2017-05-08T07:26:12.262Z,1012.36
2017-05-08T07:26:52.909Z,1012.32
2017-05-08T07:27:33.571Z,1012.38
2017-05-08T07:28:14.219Z,1012.34
2017-05-08T07:28:54.869Z,1012.33
2017-05-08T07:29:35.521Z,1012.34
2017-05-08T07:30:16.183Z,1012.33
2017-05-08T07:30:56.826Z,1012.38
2017-05-08T07:31:37.478Z,1012.39
2017-05-08T07:32:19.166Z,1012.38
2017-05-08T07:33:00.825Z,1012.38
2017-05-08T07:33:41.456Z,1012.38
2017-05-08T07:34:22.122Z,1012.43
2017-05-08T07:35:02.791Z,1012.41
2017-05-08T07:35:43.450Z,1012.4
2017-05-08T07:36:24.032Z,1012.41
2017-05-08T07:37:04.686Z,1012.42
2017-05-08T07:37:45.398Z,1012.44
2017-05-08T07:38:26.066Z,1012.41
2017-05-08T07:39:06.724Z,1012.43
2017-05-08T07:39:47.361Z,1012.43
2017-05-08T07:40:28.020Z,1012.42
2017-05-08T07:41:08.783Z,1012.4
2017-05-08T07:41:49.430Z,1012.37
2017-05-08T07:42:30.086Z,1012.37
2017-05-08T07:43:10.647Z,1012.4
2017-05-08T07:43:53.316Z,1012.41
2017-05-08T07:44:33.987Z,1012.43
2017-05-08T07:45:14.546Z,1012.47
2017-05-08T07:45:55.205Z,1012.4
2017-05-08T07:46:35.845Z,1012.42
2017-05-08T07:47:16.399Z,1012.41
2017-05-08T07:47:57.034Z,1012.42
2017-05-08T07:48:37.701Z,1012.43
2017-05-08T07:49:18.462Z,1012.41
2017-05-08T07:49:59.108Z,1012.44
2017-05-08T07:50:39.712Z,1012.48
2017-05-08T07:51:20.365Z,1012.42
2017-05-08T07:52:01.023Z,1012.44
2017-05-08T07:52:41.679Z,1012.43
2017-05-08T07:53:22.325Z,1012.44
2017-05-08T07:54:03.704Z,1012.44
2017-05-08T07:54:44.347Z,1012.46
2017-05-08T07:55:25.007Z,1012.44
2017-05-08T07:56:05.658Z,1012.44
2017-05-08T07:56:46.307Z,1012.44
2017-05-08T07:57:26.965Z,1012.47
2017-05-08T07:58:07.637Z,1012.48
2017-05-08T07:58:48.268Z,1012.48
2017-05-08T07:59:28.927Z,1012.47
2017-05-08T08:00:09.588Z,1012.47
2017-05-08T08:00:50.232Z,1012.47
2017-05-08T08:01:30.884Z,1012.48
2017-05-08T08:02:11.548Z,1012.46
2017-05-08T08:02:52.187Z,1012.48
2017-05-08T08:03:32.844Z,1012.48
2017-05-08T08:04:13.497Z,1012.45
2017-05-08T08:04:54.156Z,1012.43
2017-05-08T08:05:34.803Z,1012.48
2017-05-08T08:06:15.452Z,1012.46
2017-05-08T08:06:56.108Z,1012.43
2017-05-08T08:07:36.763Z,1012.41
2017-05-08T08:08:17.328Z,1012.48
2017-05-08T08:08:58.022Z,1012.5
2017-05-08T08:09:38.614Z,1012.46
2017-05-08T08:10:19.268Z,1012.49
2017-05-08T08:10:59.840Z,1012.44
2017-05-08T08:11:40.446Z,1012.54
2017-05-08T08:12:21.136Z,1012.54
2017-05-08T08:13:01.784Z,1012.53
2017-05-08T08:13:42.352Z,1012.53
2017-05-08T08:14:23.078Z,1012.54